Time;durP1;ratioP1;P1;durP2;ratioP2;P2;SDS_P1;SDS_P2;PMS_P1;PMS_P2;Temp;Humidity;BMP_temperature;BMP_pressure;BME280_temperature;BME280_humidity;BME280_pressure;Samples;Min_cycle;Max_cycle;Signal;HPM_P1;HPM_P2
2022/10/16 00:00:16;;;;;;;;;0.00;0.00;;;;;23.60;47.02;100926.56;5076544;27;46125;-76
2022/10/16 00:02:41;;;;;;;;;6.00;0.33;;;;;23.60;46.89;100931.88;5076268;27;45416;-75
2022/10/16 00:05:07;;;;;;;;;1.00;0.67;;;;;23.57;47.16;100924.28;5076518;27;45356;-75
2022/10/16 00:07:32;;;;;;;;;1.00;1.00;;;;;23.59;47.39;100931.06;5071409;27;45367;-75
2022/10/16 00:09:57;;;;;;;;;1.00;1.00;;;;;23.57;47.31;100927.78;5062704;27;45346;-76
2022/10/16 00:12:23;;;;;;;;;1.00;1.00;;;;;23.60;47.09;100931.88;5076352;27;45375;-76
2022/10/16 00:14:48;;;;;;;;;1.33;1.00;;;;;23.60;46.76;100926.56;5076249;27;45350;-76
2022/10/16 00:17:13;;;;;;;;;1.33;1.00;;;;;23.58;46.99;100924.09;5076011;27;45529;-75
2022/10/16 00:19:39;;;;;;;;;1.00;1.00;;;;;23.62;47.14;100940.47;5075672;27;49764;-75
2022/10/16 00:22:04;;;;;;;;;0.00;0.00;;;;;23.55;47.06;100924.47;5076028;27;45493;-76
2022/10/16 00:24:29;;;;;;;;;1.33;1.00;;;;;23.61;46.67;100930.84;5076122;27;45330;-76
2022/10/16 00:26:55;;;;;;;;;1.67;0.00;;;;;23.61;47.26;100936.16;5076452;27;45404;-75
2022/10/16 00:29:20;;;;;;;;;0.00;0.00;;;;;23.61;46.80;100928.19;5076072;27;46191;-76
2022/10/16 00:31:45;;;;;;;;;1.67;0.00;;;;;23.62;47.06;100937.81;5075562;27;45287;-76
2022/10/16 00:34:11;;;;;;;;;1.00;1.00;;;;;23.63;47.20;100939.44;5066375;27;45352;-75
2022/10/16 00:36:36;;;;;;;;;1.00;1.00;;;;;23.53;47.17;100923.84;5071606;27;45610;-75
2022/10/16 00:39:02;;;;;;;;;0.00;0.00;;;;;23.61;46.93;100933.50;5076076;27;45870;-76
2022/10/16 00:41:28;;;;;;;;;2.00;0.00;;;;;23.61;47.06;100931.69;5076099;27;45359;-75
2022/10/16 00:43:59;;;;;;;;;0.33;0.33;;;;;23.62;47.15;100940.47;5075813;27;45256;-75
2022/10/16 00:46:30;;;;;;;;;0.67;0.33;;;;;23.62;46.64;100940.47;5082980;27;45525;-75
2022/10/16 00:49:10;;;;;;;;;1.00;1.00;;;;;23.62;46.96;100932.50;5075886;27;45604;-75
2022/10/16 00:51:43;;;;;;;;;1.00;1.00;;;;;23.53;46.99;100926.47;5075883;27;45415;-75
2022/10/16 00:54:14;;;;;;;;;1.67;1.00;;;;;23.61;47.12;100936.16;5075732;27;45414;-75
2022/10/16 00:56:41;;;;;;;;;0.00;0.00;;;;;23.50;46.87;100918.88;5075804;27;45425;-76
2022/10/16 00:59:14;;;;;;;;;0.00;0.00;;;;;23.60;46.81;100937.19;5075477;28;45441;-75
2022/10/16 01:01:40;;;;;;;;;2.00;1.00;;;;;23.42;46.63;100905.72;5075210;27;45413;-75
2022/10/16 01:04:05;;;;;;;;;0.00;0.00;;;;;23.60;46.79;100931.88;5075568;27;45434;-75
2022/10/16 01:06:36;;;;;;;;;0.00;0.00;;;;;23.59;47.17;100925.75;5075595;27;45366;-76
2022/10/16 01:09:20;;;;;;;;;1.67;0.67;;;;;23.60;47.01;100939.84;5062707;27;46280;-75
2022/10/16 01:12:05;;;;;;;;;0.00;0.00;;;;;23.58;46.87;100939.19;5062522;27;45472;-77
2022/10/16 01:14:47;;;;;;;;;0.00;0.00;;;;;23.58;47.07;100937.38;5075008;27;45456;-75
2022/10/16 01:17:18;;;;;;;;;0.00;0.00;;;;;23.58;46.71;100933.88;5075487;27;45446;-75
2022/10/16 01:20:04;;;;;;;;;0.67;0.67;;;;;23.58;46.64;100941.84;5070760;27;46235;-76
2022/10/16 01:22:48;;;;;;;;;1.00;1.00;;;;;23.58;46.96;100941.84;5058678;28;45244;-75
2022/10/16 01:25:25;;;;;;;;;0.33;0.33;;;;;23.46;46.71;100938.84;5044703;28;45288;-76
2022/10/16 01:27:51;;;;;;;;;1.33;0.00;;;;;23.57;46.80;100946.38;5058896;28;45410;-76
2022/10/16 01:30:23;;;;;;;;;0.67;0.00;;;;;23.52;47.08;100949.56;5058049;28;46066;-76
2022/10/16 01:32:54;;;;;;;;;1.00;1.00;;;;;23.58;47.00;100963.94;5058640;28;45299;-76
2022/10/16 01:35:38;;;;;;;;;0.67;0.67;;;;;23.58;47.16;100966.59;5058245;28;45383;-75
2022/10/16 01:38:09;;;;;;;;;0.00;0.00;;;;;23.52;46.90;100943.44;5058203;28;45536;-76
2022/10/16 01:40:39;;;;;;;;;0.00;0.00;;;;;23.58;47.21;100955.13;5058222;28;46024;-75
2022/10/16 01:43:16;;;;;;;;;1.33;0.00;;;;;23.59;46.70;100972.72;5058466;28;45313;-76
2022/10/16 01:45:44;;;;;;;;;0.00;0.00;;;;;23.59;46.71;100959.44;5058570;28;45353;-77
2022/10/16 01:48:14;;;;;;;;;0.00;0.00;;;;;23.60;46.70;100966.41;5070047;28;45533;-75
2022/10/16 01:50:43;;;;;;;;;0.67;0.67;;;;;23.56;47.10;100960.63;5058483;28;45993;-76
2022/10/16 01:53:13;;;;;;;;;0.00;0.00;;;;;23.59;46.74;100962.94;5058281;28;45440;-76
2022/10/16 01:55:44;;;;;;;;;0.00;0.00;;;;;23.59;47.12;100954.97;5058504;28;45282;-75
2022/10/16 01:58:12;;;;;;;;;0.00;0.00;;;;;23.59;47.02;100959.44;5058019;28;45656;-75
2022/10/16 02:00:41;;;;;;;;;2.00;0.00;;;;;23.47;46.94;100945.81;5057812;28;46233;-76
2022/10/16 02:03:07;;;;;;;;;0.33;0.33;;;;;23.51;47.12;100955.06;5058163;28;45408;-76
2022/10/16 02:05:37;;;;;;;;;1.33;1.33;;;;;23.59;46.67;100962.09;5057898;28;45399;-76
2022/10/16 02:08:03;;;;;;;;;1.00;1.00;;;;;23.59;46.63;100960.28;5053317;28;45431;-75
2022/10/16 02:10:30;;;;;;;;;0.00;0.00;;;;;23.59;46.82;100960.28;5048522;28;45393;-76
2022/10/16 02:13:17;;;;;;;;;1.00;1.00;;;;;23.59;46.58;100954.97;5057647;28;45511;-76
2022/10/16 02:15:42;;;;;;;;;2.67;1.00;;;;;23.60;46.91;100961.09;5058165;28;45340;-75
2022/10/16 02:18:10;;;;;;;;;0.67;0.67;;;;;23.60;46.57;100956.59;5057667;28;45440;-76
2022/10/16 02:21:06;;;;;;;;;0.67;0.00;;;;;23.33;47.13;100929.72;5069183;27;46314;-75
2022/10/16 02:23:43;;;;;;;;;0.00;0.00;;;;;23.58;46.56;100969.22;5063886;27;45406;-75
2022/10/16 02:26:14;;;;;;;;;0.33;0.33;;;;;23.59;46.97;100970.06;5078043;27;45364;-75
2022/10/16 02:28:49;;;;;;;;;2.00;1.00;;;;;23.58;47.02;100973.72;5077711;27;45261;-75
2022/10/16 02:31:22;;;;;;;;;1.00;1.00;;;;;23.57;46.45;100980.06;5077445;27;47300;-75
2022/10/16 02:33:51;;;;;;;;;1.00;0.67;;;;;23.58;47.10;100994.97;5078020;27;45358;-75
2022/10/16 02:36:16;;;;;;;;;1.00;1.00;;;;;23.58;46.49;100992.31;5077840;27;45354;-75
2022/10/16 02:38:42;;;;;;;;;0.00;0.00;;;;;23.58;46.80;100997.63;5077778;27;45381;-75
2022/10/16 02:41:07;;;;;;;;;0.00;0.00;;;;;23.46;46.86;100973.38;5077665;27;47286;-75
2022/10/16 02:43:33;;;;;;;;;1.33;1.00;;;;;23.44;47.03;100973.56;5077320;27;45302;-75
2022/10/16 02:45:59;;;;;;;;;1.00;1.00;;;;;23.57;47.14;100994.16;5077944;27;45377;-75
2022/10/16 02:48:25;;;;;;;;;0.00;0.00;;;;;23.55;46.58;100996.16;5087092;27;45409;-76
2022/10/16 02:50:50;;;;;;;;;0.33;0.33;;;;;23.40;46.67;100974.94;5077499;27;46537;-75
2022/10/16 02:53:16;;;;;;;;;0.00;0.00;;;;;23.56;46.94;101003.13;5077636;27;45880;-76
2022/10/16 02:55:41;;;;;;;;;0.00;0.00;;;;;23.10;47.08;100936.00;5077529;27;45465;-75
2022/10/16 02:58:07;;;;;;;;;1.00;1.00;;;;;23.57;46.98;101003.97;5077490;27;45354;-75
2022/10/16 03:00:32;;;;;;;;;0.33;0.00;;;;;23.50;47.02;100993.25;5077290;27;46013;-75
2022/10/16 03:02:57;;;;;;;;;2.00;1.00;;;;;23.55;47.19;101011.28;5077656;27;45333;-75
2022/10/16 03:05:23;;;;;;;;;0.33;0.33;;;;;23.38;46.58;100982.25;5077372;27;45525;-75
2022/10/16 03:07:48;;;;;;;;;0.67;0.00;;;;;23.59;46.77;101020.53;5107825;27;45514;-75
2022/10/16 03:10:13;;;;;;;;;1.00;0.00;;;;;23.47;47.25;100999.72;5065372;27;46326;-76
2022/10/16 03:12:39;;;;;;;;;0.00;0.00;;;;;23.58;46.78;101011.72;5077385;27;45400;-75
2022/10/16 03:15:04;;;;;;;;;0.33;0.33;;;;;23.57;46.41;101011.94;5077400;27;45461;-75
2022/10/16 03:17:31;;;;;;;;;1.00;0.00;;;;;23.56;46.89;101010.28;5077579;27;45430;-75
2022/10/16 03:19:57;;;;;;;;;1.00;0.00;;;;;23.56;46.87;101011.09;5076424;27;46344;-75
2022/10/16 03:22:22;;;;;;;;;1.00;1.00;;;;;23.59;46.85;101015.22;5077391;27;45687;-75
2022/10/16 03:24:47;;;;;;;;;0.00;0.00;;;;;23.59;46.72;101018.69;5076742;27;45365;-76
2022/10/16 03:27:13;;;;;;;;;3.00;1.67;;;;;23.54;46.55;101020.25;5076649;27;50072;-75
2022/10/16 03:29:38;;;;;;;;;0.67;0.67;;;;;23.56;47.02;101026.19;5076959;27;47187;-75
2022/10/16 03:32:03;;;;;;;;;0.67;0.67;;;;;23.58;47.17;101027.66;5076716;27;45334;-76
2022/10/16 03:34:29;;;;;;;;;2.67;0.00;;;;;23.55;46.84;101014.75;5077281;27;45426;-76
2022/10/16 03:36:54;;;;;;;;;0.00;0.00;;;;;23.59;46.51;101037.28;5076989;27;45418;-76
2022/10/16 03:39:20;;;;;;;;;1.33;0.00;;;;;23.57;46.98;101031.34;5076348;27;47209;-76
2022/10/16 03:41:46;;;;;;;;;0.33;0.33;;;;;23.58;46.93;101029.50;5076042;27;45226;-75
2022/10/16 03:44:11;;;;;;;;;0.00;0.00;;;;;23.58;46.89;101040.13;5077063;27;45365;-76
2022/10/16 03:46:37;;;;;;;;;1.33;0.33;;;;;23.52;46.97;101023.13;5076498;27;45440;-75
2022/10/16 03:49:02;;;;;;;;;0.33;0.33;;;;;23.57;46.80;101030.50;5081287;27;45324;-76
2022/10/16 03:51:27;;;;;;;;;0.00;0.00;;;;;23.56;46.91;101028.84;5085235;27;45367;-75
2022/10/16 03:53:53;;;;;;;;;1.00;1.00;;;;;23.57;46.49;101033.16;5109289;27;45242;-77
2022/10/16 03:56:18;;;;;;;;;0.00;0.00;;;;;23.56;46.52;101029.69;5076781;27;45457;-75
2022/10/16 03:58:43;;;;;;;;;0.00;0.00;;;;;23.49;46.63;101021.66;5076045;27;54746;-75
2022/10/16 04:01:09;;;;;;;;;0.00;0.00;;;;;23.56;46.38;101029.69;5076652;27;45347;-75
2022/10/16 04:03:34;;;;;;;;;0.00;0.00;;;;;23.55;46.49;101032.53;5076667;27;45391;-75
2022/10/16 04:05:59;;;;;;;;;0.00;0.00;;;;;23.46;46.70;101021.16;5076455;27;45553;-75
2022/10/16 04:08:25;;;;;;;;;0.00;0.00;;;;;23.58;47.04;101034.81;5068327;27;45998;-76
2022/10/16 04:10:50;;;;;;;;;0.00;0.00;;;;;23.54;46.70;101029.06;5070044;27;45504;-75
2022/10/16 04:13:15;;;;;;;;;1.00;1.00;;;;;23.56;46.49;101042.13;5076312;27;45484;-75
2022/10/16 04:15:41;;;;;;;;;0.00;0.00;;;;;23.50;46.85;101039.22;5076659;27;45362;-75
2022/10/16 04:18:06;;;;;;;;;0.00;0.00;;;;;23.56;46.91;101050.09;5075747;27;46217;-76
2022/10/16 04:20:33;;;;;;;;;1.00;0.00;;;;;23.56;46.53;101047.44;5075611;27;45334;-75
2022/10/16 04:22:58;;;;;;;;;0.00;0.00;;;;;23.55;46.68;101048.47;5075905;27;45434;-75
2022/10/16 04:25:23;;;;;;;;;1.00;0.00;;;;;23.55;46.49;101043.16;5076297;27;45428;-75
2022/10/16 04:27:49;;;;;;;;;0.00;0.00;;;;;23.56;46.84;101044.78;5076217;27;47158;-75
2022/10/16 04:30:14;;;;;;;;;1.00;0.00;;;;;23.56;46.99;101052.75;5075834;27;45453;-75
2022/10/16 04:32:40;;;;;;;;;2.33;0.67;;;;;23.54;46.84;101049.47;5076175;27;45722;-76
2022/10/16 04:35:06;;;;;;;;;0.00;0.00;;;;;23.47;46.85;101038.75;5076133;27;45484;-75
2022/10/16 04:37:32;;;;;;;;;0.00;0.00;;;;;23.53;46.51;101043.34;5075308;27;47627;-76
2022/10/16 04:39:57;;;;;;;;;0.00;0.00;;;;;23.58;46.66;101064.84;5075783;27;45433;-75
2022/10/16 04:42:22;;;;;;;;;0.33;0.33;;;;;23.54;46.69;101052.13;5076343;27;45353;-75
2022/10/16 04:44:48;;;;;;;;;1.00;1.00;;;;;23.50;46.68;101044.53;5076017;27;45499;-75
2022/10/16 04:47:13;;;;;;;;;0.00;0.00;;;;;23.58;46.61;101064.84;5075556;27;45345;-75
2022/10/16 04:49:39;;;;;;;;;0.00;0.00;;;;;23.57;46.78;101065.03;5080798;27;45398;-76
2022/10/16 04:52:04;;;;;;;;;1.00;0.00;;;;;23.58;46.34;101070.16;5078437;27;45625;-75
2022/10/16 04:54:30;;;;;;;;;0.00;0.00;;;;;23.57;46.88;101060.56;5074808;27;45401;-76
2022/10/16 04:56:55;;;;;;;;;0.33;0.33;;;;;23.57;46.96;101071.19;5075677;27;45514;-75
2022/10/16 04:59:22;;;;;;;;;0.00;0.00;;;;;23.59;46.88;101071.00;5075641;27;45428;-76
2022/10/16 05:01:47;;;;;;;;;1.00;1.00;;;;;23.48;46.87;101057.13;5076117;27;45399;-76
2022/10/16 05:04:14;;;;;;;;;1.00;0.00;;;;;23.54;46.88;101070.72;5075731;27;45331;-75
2022/10/16 05:06:40;;;;;;;;;0.00;0.00;;;;;23.57;46.98;101076.50;5075347;27;46182;-75
2022/10/16 05:09:06;;;;;;;;;0.00;0.00;;;;;23.53;46.52;101072.53;5062124;27;45280;-75
2022/10/16 05:11:32;;;;;;;;;0.00;0.00;;;;;23.57;46.94;101076.50;5070073;28;45462;-76
2022/10/16 05:13:57;;;;;;;;;0.33;0.33;;;;;23.49;46.63;101074.75;5066665;28;45331;-75
2022/10/16 05:16:22;;;;;;;;;0.00;0.00;;;;;23.57;46.63;101086.28;5075406;27;46267;-76
2022/10/16 05:18:48;;;;;;;;;0.00;0.00;;;;;23.57;46.72;101087.13;5075354;27;46784;-75
2022/10/16 05:21:13;;;;;;;;;0.00;0.00;;;;;23.55;46.47;101089.13;5074717;27;45392;-77
2022/10/16 05:23:38;;;;;;;;;0.33;0.33;;;;;23.56;46.72;101098.75;5075817;27;45394;-77
2022/10/16 05:26:04;;;;;;;;;0.00;0.00;;;;;23.55;46.66;101101.59;5075107;27;46106;-75
2022/10/16 05:28:30;;;;;;;;;1.00;1.00;;;;;23.55;46.71;101110.34;5075273;27;45260;-76
2022/10/16 05:30:56;;;;;;;;;0.33;0.33;;;;;23.52;46.64;101105.44;5108486;27;45643;-75
2022/10/16 05:33:24;;;;;;;;;0.00;0.00;;;;;23.55;46.43;101109.56;5075245;27;45382;-75
2022/10/16 05:35:50;;;;;;;;;0.00;0.00;;;;;23.52;46.79;101111.56;5074676;27;45976;-76
2022/10/16 05:38:18;;;;;;;;;1.00;1.00;;;;;23.46;46.52;101103.47;5075053;28;45447;-75
2022/10/16 05:40:50;;;;;;;;;0.00;0.00;;;;;23.55;46.32;101122.84;5075327;27;45424;-75
2022/10/16 05:43:16;;;;;;;;;0.00;0.00;;;;;23.55;46.89;101117.53;5075094;27;45502;-75
2022/10/16 05:45:41;;;;;;;;;0.67;0.67;;;;;23.48;46.87;101109.41;5074988;27;47286;-75
2022/10/16 05:48:06;;;;;;;;;1.00;0.00;;;;;23.48;46.53;101120.88;5074901;28;47512;-75
2022/10/16 05:50:31;;;;;;;;;0.67;0.67;;;;;23.52;46.78;101134.66;5076452;27;45252;-74
2022/10/16 05:52:57;;;;;;;;;0.33;0.33;;;;;23.50;46.42;101137.47;5085265;27;45427;-75
2022/10/16 05:55:22;;;;;;;;;0.00;0.00;;;;;23.56;46.71;101151.84;5074901;27;46379;-76
2022/10/16 05:57:47;;;;;;;;;1.00;0.00;;;;;23.57;46.78;101152.69;5075238;27;45301;-75
2022/10/16 06:00:13;;;;;;;;;0.00;0.00;;;;;23.56;46.94;101154.50;5074386;27;49650;-76
2022/10/16 06:02:38;;;;;;;;;0.67;0.00;;;;;23.47;46.78;101142.31;5075149;27;45439;-75
2022/10/16 06:05:04;;;;;;;;;1.33;0.67;;;;;23.56;46.37;101146.53;5074985;27;46932;-76
2022/10/16 06:07:34;;;;;;;;;0.00;0.00;;;;;23.56;46.97;101143.88;5074189;27;45886;-76
2022/10/16 06:09:59;;;;;;;;;0.67;0.67;;;;;23.45;46.74;101126.53;5064770;28;45445;-75
2022/10/16 06:12:26;;;;;;;;;0.33;0.33;;;;;23.50;46.79;101126.03;5078326;27;45348;-76
2022/10/16 06:14:51;;;;;;;;;0.00;0.00;;;;;23.56;46.43;101133.25;5078147;27;46194;-75
2022/10/16 06:17:17;;;;;;;;;0.00;0.00;;;;;23.57;47.02;101136.75;5078125;27;45429;-75
2022/10/16 06:19:42;;;;;;;;;0.00;0.00;;;;;23.33;46.60;101104.13;5078109;27;45424;-75
2022/10/16 06:22:07;;;;;;;;;0.00;0.00;;;;;23.44;46.85;101124.09;5078293;27;45597;-76
2022/10/16 06:24:33;;;;;;;;;0.00;0.00;;;;;23.50;47.02;101134.81;5077790;27;46113;-75
2022/10/16 06:26:58;;;;;;;;;0.00;0.00;;;;;23.54;47.07;101142.41;5078267;27;45972;-75
2022/10/16 06:29:23;;;;;;;;;2.00;0.00;;;;;23.45;46.72;101125.72;5078223;27;45337;-75
2022/10/16 06:31:48;;;;;;;;;0.00;0.00;;;;;23.56;46.81;101151.03;5077904;27;45421;-75
2022/10/16 06:34:14;;;;;;;;;0.00;0.00;;;;;23.56;46.68;101146.53;5077581;27;45407;-74
2022/10/16 06:36:40;;;;;;;;;0.00;0.00;;;;;23.46;46.51;101128.19;5077916;27;45293;-75
2022/10/16 06:39:07;;;;;;;;;0.00;0.00;;;;;23.56;46.73;101151.03;5078330;27;45421;-75
2022/10/16 06:41:33;;;;;;;;;0.00;0.00;;;;;23.56;46.75;101159.81;5077823;27;45544;-75
2022/10/16 06:43:58;;;;;;;;;0.00;0.00;;;;;23.52;46.66;101159.34;5077811;27;47551;-75
2022/10/16 06:46:25;;;;;;;;;1.67;0.33;;;;;23.55;46.64;101171.44;5077855;27;45311;-76
2022/10/16 06:48:50;;;;;;;;;0.00;0.00;;;;;23.50;46.57;101168.50;5077684;27;45505;-74
2022/10/16 06:51:21;;;;;;;;;0.00;0.00;;;;;23.55;46.60;101178.59;5082552;27;45450;-75
2022/10/16 06:53:51;;;;;;;;;0.00;0.00;;;;;23.55;46.46;101181.25;5080507;27;46080;-75
2022/10/16 06:56:22;;;;;;;;;0.00;0.00;;;;;23.48;46.80;101183.78;5077819;27;45341;-75
2022/10/16 06:58:48;;;;;;;;;0.00;0.00;;;;;23.54;46.76;101188.41;5077592;27;45543;-76
2022/10/16 07:01:15;;;;;;;;;0.00;0.00;;;;;23.54;46.52;101183.09;5077615;27;45411;-75
2022/10/16 07:03:43;;;;;;;;;2.67;0.00;;;;;23.51;46.51;101184.28;5076953;27;46279;-75
2022/10/16 07:06:11;;;;;;;;;0.00;0.00;;;;;23.54;46.79;101187.56;5077330;27;45317;-75
2022/10/16 07:08:38;;;;;;;;;1.00;0.00;;;;;23.54;46.54;101188.41;5068255;27;45330;-75
2022/10/16 07:11:09;;;;;;;;;2.33;0.67;;;;;23.54;46.42;101198.19;5072753;27;45386;-75
2022/10/16 07:13:38;;;;;;;;;1.00;0.00;;;;;23.47;47.00;101182.16;5077164;27;45882;-75
2022/10/16 07:16:13;;;;;;;;;0.00;0.00;;;;;23.54;46.80;101214.13;5076981;27;45314;-75
2022/10/16 07:18:42;;;;;;;;;0.00;0.00;;;;;23.55;46.99;101219.25;5076343;27;45381;-75
2022/10/16 07:21:17;;;;;;;;;2.00;0.00;;;;;23.45;46.31;101208.88;5077120;27;45527;-75
2022/10/16 07:23:42;;;;;;;;;0.00;0.00;;;;;23.55;46.55;101221.09;5096395;27;46341;-75
2022/10/16 07:26:09;;;;;;;;;0.00;0.00;;;;;23.56;46.88;101238.66;5083583;27;45232;-75
2022/10/16 07:28:35;;;;;;;;;0.00;0.00;;;;;23.46;46.89;101222.97;5076992;27;45444;-75
2022/10/16 07:31:02;;;;;;;;;2.00;1.00;;;;;23.46;46.53;101226.47;5077226;27;45324;-77
2022/10/16 07:33:28;;;;;;;;;0.00;0.00;;;;;23.56;46.74;101246.63;5076486;27;46017;-76
2022/10/16 07:35:54;;;;;;;;;0.00;0.00;;;;;23.42;46.78;101214.53;5076973;27;45568;-76
2022/10/16 07:38:21;;;;;;;;;1.33;0.00;;;;;23.56;46.57;101239.50;5077059;27;45621;-75
2022/10/16 07:40:47;;;;;;;;;0.00;0.00;;;;;23.49;47.03;101236.75;5076906;27;45453;-75
2022/10/16 07:43:12;;;;;;;;;0.33;0.33;;;;;23.57;46.80;101238.50;5076597;27;46222;-75
2022/10/16 07:45:47;;;;;;;;;0.00;0.00;;;;;23.57;46.63;101243.81;5062726;28;45439;-76
2022/10/16 07:48:12;;;;;;;;;0.00;0.00;;;;;23.57;46.70;101237.69;5076930;27;45489;-75
2022/10/16 07:50:38;;;;;;;;;0.00;0.00;;;;;23.57;46.53;101240.34;5076537;27;45296;-75
2022/10/16 07:53:04;;;;;;;;;2.33;0.00;;;;;23.56;46.83;101241.31;5084542;27;46947;-75
2022/10/16 07:55:29;;;;;;;;;1.00;1.00;;;;;23.56;46.40;101247.47;5079280;27;49353;-76
2022/10/16 07:57:54;;;;;;;;;0.00;0.00;;;;;23.52;46.94;101241.69;5076874;27;45326;-73
2022/10/16 08:00:20;;;;;;;;;0.00;0.00;;;;;23.52;47.12;101233.72;5076514;27;45386;-81
2022/10/16 08:02:45;;;;;;;;;1.33;0.67;;;;;23.70;46.96;101250.34;5076768;27;46154;-78
2022/10/16 08:05:11;;;;;;;;;0.00;0.00;;;;;23.81;46.80;101249.88;5076532;27;45388;-79
2022/10/16 08:07:36;;;;;;;;;0.00;0.00;;;;;23.89;46.45;101245.50;5075714;27;45346;-79
2022/10/16 08:10:02;;;;;;;;;1.33;1.33;;;;;23.98;44.33;101248.88;5063319;27;45565;-79
2022/10/16 08:12:28;;;;;;;;;1.33;1.33;;;;;23.92;43.63;101248.59;5076668;27;45503;-80
2022/10/16 08:14:53;;;;;;;;;2.67;2.67;;;;;23.80;42.79;101250.88;5076056;27;45452;-79
2022/10/16 08:17:18;;;;;;;;;2.33;1.00;;;;;23.65;43.37;101252.72;5076535;27;45758;-78
2022/10/16 08:19:47;;;;;;;;;2.00;2.00;;;;;23.59;43.75;101246.28;5073616;27;45475;-78
2022/10/16 08:22:13;;;;;;;;;2.00;2.00;;;;;23.57;44.22;101251.78;5065451;27;45440;-78
2022/10/16 08:24:39;;;;;;;;;2.33;1.00;;;;;23.59;44.33;101257.75;5076044;27;45379;-78
2022/10/16 08:27:05;;;;;;;;;2.00;2.00;;;;;23.58;44.76;101247.28;5076418;27;45413;-79
2022/10/16 08:29:30;;;;;;;;;3.00;1.00;;;;;23.63;44.66;101247.56;5075842;27;45620;-78
2022/10/16 08:31:55;;;;;;;;;1.67;0.67;;;;;23.20;44.86;101165.78;5076118;27;46977;-76
2022/10/16 08:34:21;;;;;;;;;1.33;1.00;;;;;23.66;44.46;101225.94;5075792;27;45383;-77
2022/10/16 08:36:46;;;;;;;;;3.00;2.00;;;;;23.67;44.79;101237.41;5076031;27;45652;-79
2022/10/16 08:39:11;;;;;;;;;2.00;2.00;;;;;23.69;44.06;101248.66;5076252;27;45359;-77
2022/10/16 08:42:08;;;;;;;;;1.00;1.00;;;;;23.70;44.49;101259.13;5075402;27;57179;-74
2022/10/16 08:44:46;;;;;;;;;2.33;2.33;;;;;23.66;44.67;101241.88;5075437;27;45400;-75
2022/10/16 08:47:44;;;;;;;;;2.00;2.00;;;;;23.72;44.22;101243.00;5075489;28;45322;-75
2022/10/16 08:50:13;;;;;;;;;1.00;1.00;;;;;23.73;44.88;101253.44;5075675;27;45367;-76
2022/10/16 08:52:44;;;;;;;;;2.67;1.33;;;;;23.74;45.07;101257.75;5075974;27;45541;-75
2022/10/16 08:55:48;;;;;;;;;3.00;1.33;;;;;23.77;45.09;101269.84;5078693;27;45318;-75
2022/10/16 08:58:17;;;;;;;;;1.33;1.33;;;;;23.78;44.88;101260.88;5075340;28;45210;-76
2022/10/16 09:00:50;;;;;;;;;2.00;2.00;;;;;23.78;45.08;101254.75;5075443;27;45398;-74
2022/10/16 09:03:56;;;;;;;;;1.00;1.00;;;;;23.78;45.31;101260.88;5075482;27;47527;-75
2022/10/16 09:06:40;;;;;;;;;2.00;1.00;;;;;23.80;45.12;101264.19;5075669;27;45445;-74
2022/10/16 09:09:16;;;;;;;;;1.33;1.33;;;;;23.81;45.13;101257.03;5062662;27;45454;-74
2022/10/16 09:11:53;;;;;;;;;1.33;1.33;;;;;23.70;45.56;101245.03;5062180;28;45333;-73
2022/10/16 09:14:44;;;;;;;;;2.33;1.00;;;;;23.83;44.65;101269.13;5074961;27;46166;-74
2022/10/16 09:17:25;;;;;;;;;4.33;3.67;;;;;23.69;43.83;101277.88;5065001;27;45233;-76
2022/10/16 09:20:13;;;;;;;;;1.00;1.00;;;;;23.28;43.88;101256.81;5075150;27;45557;-75
2022/10/16 09:22:39;;;;;;;;;2.67;2.67;;;;;23.16;43.60;101264.34;5075453;27;45317;-75
2022/10/16 09:25:16;;;;;;;;;3.00;3.00;;;;;23.04;44.18;101274.56;5074840;27;45356;-76
2022/10/16 09:27:44;;;;;;;;;3.00;3.00;;;;;22.98;44.12;101301.81;5075123;28;45374;-74
2022/10/16 09:30:15;;;;;;;;;2.67;2.67;;;;;22.86;44.75;101293.44;5075233;27;45425;-74
2022/10/16 09:32:42;;;;;;;;;2.00;2.00;;;;;22.78;44.80;101302.25;5075320;27;45525;-74
2022/10/16 09:35:16;;;;;;;;;1.00;1.00;;;;;22.66;44.33;101306.28;5075074;27;47373;-73
2022/10/16 09:37:45;;;;;;;;;3.67;2.00;;;;;22.56;44.59;101309.94;5075670;27;45512;-79
2022/10/16 09:40:44;;;;;;;;;3.00;3.00;;;;;22.49;45.45;101304.53;5075848;27;45317;-74
2022/10/16 09:43:25;;;;;;;;;5.33;4.00;;;;;22.52;45.77;101295.41;5078426;27;45240;-75
2022/10/16 09:46:07;;;;;;;;;2.67;2.67;;;;;22.54;45.45;101297.88;5065789;27;47224;-77
2022/10/16 09:48:48;;;;;;;;;1.00;1.00;;;;;22.55;45.03;101294.22;5078438;27;45620;-75
2022/10/16 09:51:21;;;;;;;;;1.00;1.00;;;;;22.37;45.42;101284.69;5078727;27;45320;-79
2022/10/16 09:53:47;;;;;;;;;4.33;1.00;;;;;22.40;45.79;101297.59;5078848;27;45523;-74
2022/10/16 09:56:23;;;;;;;;;3.00;1.00;;;;;22.41;46.01;101301.91;5082789;27;47314;-78
2022/10/16 09:58:51;;;;;;;;;5.00;1.33;;;;;22.48;46.18;101299.41;5078491;27;45290;-73
2022/10/16 10:01:17;;;;;;;;;3.33;1.00;;;;;22.56;46.03;101283.44;5078254;27;45421;-77
2022/10/16 10:03:43;;;;;;;;;3.00;1.00;;;;;22.66;45.66;101287.72;5078582;27;45333;-70
2022/10/16 10:06:30;;;;;;;;;4.00;2.33;;;;;22.66;45.48;101275.28;5078339;27;46289;-73
2022/10/16 10:08:57;;;;;;;;;2.00;2.00;;;;;22.82;46.29;101286.84;5066347;27;45467;-73
2022/10/16 10:11:55;;;;;;;;;1.00;1.00;;;;;22.88;46.05;101274.66;5075771;27;45402;-73
2022/10/16 10:14:24;;;;;;;;;1.00;1.00;;;;;22.96;45.91;101270.16;5078176;27;45496;-72
2022/10/16 10:16:51;;;;;;;;;3.00;2.00;;;;;23.01;46.14;101263.47;5078206;27;45452;-73
2022/10/16 10:19:23;;;;;;;;;1.00;1.00;;;;;22.96;45.75;101240.13;5078022;27;45421;-73
2022/10/16 10:21:52;;;;;;;;;0.33;0.33;;;;;23.11;45.67;101257.97;5078205;27;45400;-73
2022/10/16 10:24:19;;;;;;;;;0.67;0.67;;;;;23.14;45.58;101263.72;5078349;27;45384;-73
2022/10/16 10:27:16;;;;;;;;;1.33;1.00;;;;;23.19;45.56;101279.09;5077360;27;45318;-73
2022/10/16 10:30:04;;;;;;;;;1.00;1.00;;;;;23.22;45.71;101284.06;5077911;27;45390;-73
2022/10/16 10:32:47;;;;;;;;;4.00;2.00;;;;;23.25;46.03;101282.88;5078358;27;45472;-74
2022/10/16 10:35:21;;;;;;;;;2.67;2.00;;;;;23.27;46.03;101283.53;5078034;27;45285;-74
2022/10/16 10:38:06;;;;;;;;;2.00;1.00;;;;;23.30;45.91;101288.50;5077719;27;47330;-75
2022/10/16 10:41:10;;;;;;;;;4.33;1.00;;;;;23.32;45.93;101272.38;5077244;27;45358;-72
2022/10/16 10:44:00;;;;;;;;;1.00;1.00;;;;;23.34;45.88;101268.53;5078011;27;45263;-72
2022/10/16 10:46:36;;;;;;;;;0.67;0.67;;;;;23.26;45.58;101261.47;5077961;27;45444;-74
2022/10/16 10:49:13;;;;;;;;;2.00;2.00;;;;;23.36;45.68;101281.66;5077400;27;47200;-73
2022/10/16 10:52:13;;;;;;;;;1.33;1.00;;;;;23.38;45.41;101279.63;5077684;27;45329;-73
2022/10/16 10:55:06;;;;;;;;;2.00;1.67;;;;;23.40;45.39;101285.59;5076908;27;45550;-73
2022/10/16 10:57:40;;;;;;;;;1.00;1.00;;;;;23.42;45.41;101280.91;5077467;27;45437;-73
2022/10/16 11:00:24;;;;;;;;;2.00;2.00;;;;;23.42;46.05;101272.94;5077310;27;46238;-73
2022/10/16 11:03:03;;;;;;;;;1.00;1.00;;;;;23.45;45.33;101267.28;5064647;28;45359;-73
2022/10/16 11:05:37;;;;;;;;;1.00;1.00;;;;;23.46;45.35;101266.28;5077463;27;45381;-73
2022/10/16 11:08:29;;;;;;;;;1.00;1.00;;;;;23.47;45.76;101265.28;5072783;27;45351;-73
2022/10/16 11:11:02;;;;;;;;;1.00;1.00;;;;;23.49;45.26;101259.78;5070829;28;47226;-73
2022/10/16 11:13:53;;;;;;;;;2.33;1.33;;;;;23.49;45.96;101257.13;5079671;27;45458;-73
2022/10/16 11:16:28;;;;;;;;;2.33;1.00;;;;;23.51;45.77;101241.88;5077425;27;45358;-73
2022/10/16 11:19:05;;;;;;;;;1.33;1.33;;;;;23.52;45.71;101248.84;5077439;27;45317;-73
2022/10/16 11:21:40;;;;;;;;;1.00;1.00;;;;;23.51;45.61;101255.97;5076841;27;47348;-73
2022/10/16 11:24:11;;;;;;;;;1.00;1.00;;;;;23.39;45.32;101229.00;5076841;27;45345;-73
2022/10/16 11:26:42;;;;;;;;;0.00;0.00;;;;;23.53;45.69;101242.50;5076997;27;45329;-73
2022/10/16 11:29:19;;;;;;;;;1.00;1.00;;;;;23.54;45.48;101246.00;5076926;27;45283;-73
2022/10/16 11:31:50;;;;;;;;;3.00;2.00;;;;;23.55;45.51;101235.19;5076944;27;46194;-73
2022/10/16 11:34:27;;;;;;;;;1.00;1.00;;;;;23.56;45.74;101236.00;5110066;27;45428;-73
2022/10/16 11:37:03;;;;;;;;;0.00;0.00;;;;;23.58;45.98;101236.66;5076921;27;45339;-73